Time;durP1;ratioP1;P1;durP2;ratioP2;P2;SDS_P1;SDS_P2;PMS_P1;PMS_P2;Temp;Humidity;BMP_temperature;BMP_pressure;BME280_temperature;BME280_humidity;BME280_pressure;Samples;Min_cycle;Max_cycle;Signal;HPM_P1;HPM_P2
2022/07/28 00:00:15;;;;;;;10.40;2.70;;;;;;;11.67;72.56;100562.94;106044;1271;22604;-48
2022/07/28 00:03:06;;;;;;;9.30;2.40;;;;;;;11.61;72.73;100564.42;105991;1270;24240;-48
2022/07/28 00:05:39;;;;;;;10.00;2.60;;;;;;;11.56;72.56;100564.38;106101;1271;25466;-50
2022/07/28 00:08:11;;;;;;;11.50;2.90;;;;;;;11.50;72.41;100564.55;106054;1270;22597;-47
2022/07/28 00:10:43;;;;;;;9.20;2.30;;;;;;;11.44;72.56;100561.65;106190;1270;22545;-49
2022/07/28 00:13:16;;;;;;;12.30;3.00;;;;;;;11.38;72.75;100559.03;106154;1271;25726;-48
2022/07/28 00:15:47;;;;;;;9.80;2.50;;;;;;;11.32;72.83;100562.22;106107;1271;24434;-48
2022/07/28 00:18:21;;;;;;;15.00;2.90;;;;;;;11.29;72.77;100562.64;106167;1270;22556;-50
2022/07/28 00:20:53;;;;;;;17.40;3.20;;;;;;;11.24;73.04;100562.90;106141;1271;22547;-48
2022/07/28 00:23:25;;;;;;;11.90;3.00;;;;;;;11.18;73.00;100559.27;106186;1271;24421;-49
2022/07/28 00:25:57;;;;;;;9.80;2.60;;;;;;;11.14;73.10;100559.80;106114;1271;22733;-52
2022/07/28 00:28:29;;;;;;;9.10;2.50;;;;;;;11.10;72.94;100560.27;106163;1270;22726;-48
2022/07/28 00:31:00;;;;;;;14.70;2.80;;;;;;;11.07;73.01;100563.75;106150;1270;22582;-47
2022/07/28 00:33:32;;;;;;;16.90;2.80;;;;;;;11.03;73.06;100566.44;106241;1271;25239;-46
2022/07/28 00:36:04;;;;;;;14.50;2.60;;;;;;;10.98;73.03;100565.97;106121;1271;24392;-49
2022/07/28 00:38:36;;;;;;;11.60;3.30;;;;;;;10.93;73.03;100567.10;106060;1270;25450;-48
2022/07/28 00:41:13;;;;;;;15.80;3.40;;;;;;;10.91;72.92;100571.52;106054;1271;25582;-48
2022/07/28 00:43:46;;;;;;;11.80;2.70;;;;;;;10.88;72.96;100569.25;106097;1271;25297;-47
2022/07/28 00:46:20;;;;;;;12.60;2.60;;;;;;;10.84;73.01;100569.83;106019;1271;22618;-49
2022/07/28 00:48:53;;;;;;;17.60;2.70;;;;;;;10.81;73.22;100573.36;106057;1271;25333;-48
2022/07/28 00:51:25;;;;;;;8.80;2.50;;;;;;;10.77;73.05;100572.01;106073;1271;24370;-48
2022/07/28 00:53:59;;;;;;;11.70;2.40;;;;;;;10.74;73.05;100562.13;106067;1271;23213;-48
2022/07/28 00:56:31;;;;;;;10.80;2.60;;;;;;;10.72;73.14;100564.93;106045;1271;25378;-47
2022/07/28 00:59:02;;;;;;;12.50;2.80;;;;;;;10.71;73.29;100563.13;106261;1270;22612;-48
2022/07/28 01:01:33;;;;;;;9.50;2.10;;;;;;;10.71;73.23;100559.81;106141;1271;25285;-48
2022/07/28 01:04:06;;;;;;;13.20;2.90;;;;;;;10.68;73.25;100560.98;106054;1271;24434;-48
2022/07/28 01:06:58;;;;;;;13.30;2.40;;;;;;;10.66;73.43;100565.45;106130;1271;22531;-49
2022/07/28 01:09:48;;;;;;;10.80;2.30;;;;;;;10.62;73.41;100560.68;105838;1271;24358;-48
2022/07/28 01:12:30;;;;;;;8.90;2.90;;;;;;;10.58;73.42;100564.61;106067;1271;22573;-48
2022/07/28 01:15:08;;;;;;;11.70;3.50;;;;;;;10.55;73.43;100566.27;106233;1271;25346;-48
2022/07/28 01:17:45;;;;;;;11.20;1.70;;;;;;;10.52;73.54;100567.39;106168;1270;22855;-48
2022/07/28 01:20:20;;;;;;;12.50;2.20;;;;;;;10.49;73.54;100568.58;106135;1271;25409;-49
2022/07/28 01:23:06;;;;;;;7.80;2.20;;;;;;;10.45;73.73;100573.00;106287;1271;25411;-48
2022/07/28 01:25:46;;;;;;;7.50;2.10;;;;;;;10.40;73.65;100569.86;106134;1271;22547;-49
2022/07/28 01:28:29;;;;;;;9.80;2.20;;;;;;;10.35;73.70;100571.23;106092;1271;22545;-50
2022/07/28 01:31:05;;;;;;;10.30;2.00;;;;;;;10.31;73.75;100571.19;106113;1270;23417;-48
2022/07/28 01:33:43;;;;;;;8.60;2.20;;;;;;;10.27;73.82;100575.09;106114;1271;22576;-48
2022/07/28 01:36:19;;;;;;;8.80;2.10;;;;;;;10.22;73.87;100573.64;106110;1270;25373;-47
2022/07/28 01:38:51;;;;;;;8.80;1.80;;;;;;;10.17;73.80;100575.34;106127;1271;22573;-48
2022/07/28 01:41:26;;;;;;;9.40;2.30;;;;;;;10.11;73.88;100572.55;106078;1271;25861;-50
2022/07/28 01:44:01;;;;;;;9.20;2.00;;;;;;;10.07;73.89;100574.86;106075;1271;22719;-50
2022/07/28 01:46:36;;;;;;;10.60;2.30;;;;;;;10.03;73.92;100579.77;106022;1271;22544;-49
2022/07/28 01:49:10;;;;;;;10.00;2.80;;;;;;;10.01;74.23;100578.38;106129;1271;22569;-47
2022/07/28 01:51:43;;;;;;;10.60;2.10;;;;;;;9.98;74.60;100578.79;106117;1271;22550;-49
2022/07/28 01:54:15;;;;;;;12.20;1.50;;;;;;;9.94;74.70;100580.09;106461;1269;25336;-48
2022/07/28 01:56:49;;;;;;;6.30;1.50;;;;;;;9.90;75.15;100580.77;106170;1271;22541;-49
2022/07/28 01:59:23;;;;;;;7.40;1.50;;;;;;;9.87;75.11;100582.06;106149;1270;25950;-49
2022/07/28 02:01:56;;;;;;;11.80;1.60;;;;;;;9.84;75.13;100577.77;106181;1271;22617;-49
2022/07/28 02:04:28;;;;;;;6.60;1.30;;;;;;;9.79;75.18;100577.34;106137;1271;25376;-48
2022/07/28 02:07:02;;;;;;;8.00;1.80;;;;;;;9.79;75.28;100582.20;106117;1271;22557;-50
2022/07/28 02:09:35;;;;;;;6.00;1.50;;;;;;;9.78;75.18;100583.60;106145;1271;22678;-48
2022/07/28 02:12:08;;;;;;;8.60;1.70;;;;;;;9.77;75.24;100582.63;105984;1271;24290;-48
2022/07/28 02:14:41;;;;;;;7.10;1.50;;;;;;;9.76;75.32;100580.52;106014;1271;22685;-47
2022/07/28 02:17:19;;;;;;;8.30;2.00;;;;;;;9.76;75.26;100576.41;106109;1271;26738;-50
2022/07/28 02:19:54;;;;;;;8.50;1.70;;;;;;;9.76;75.23;100575.55;106025;1271;22535;-48
2022/07/28 02:22:27;;;;;;;10.10;2.50;;;;;;;9.73;75.27;100578.40;105908;1271;22541;-48
2022/07/28 02:24:59;;;;;;;9.60;1.70;;;;;;;9.70;75.14;100576.04;106229;1271;24290;-50
2022/07/28 02:27:38;;;;;;;8.50;2.00;;;;;;;9.71;75.07;100579.14;106158;1270;22544;-48
2022/07/28 02:30:17;;;;;;;6.90;1.70;;;;;;;9.68;74.98;100583.83;106119;1271;22519;-48
2022/07/28 02:32:52;;;;;;;11.40;1.90;;;;;;;9.63;74.99;100587.45;106046;1271;23953;-48
2022/07/28 02:35:31;;;;;;;6.90;1.60;;;;;;;9.60;74.96;100588.86;106066;1271;22521;-50
2022/07/28 02:38:07;;;;;;;9.50;1.60;;;;;;;9.56;75.02;100587.28;105986;1270;25555;-48
2022/07/28 02:40:40;;;;;;;8.20;1.50;;;;;;;9.52;74.89;100591.02;106069;1271;22678;-48
2022/07/28 02:43:16;;;;;;;9.00;1.80;;;;;;;9.49;74.93;100594.65;105975;1271;22647;-48
2022/07/28 02:45:54;;;;;;;12.10;2.50;;;;;;;9.48;75.12;100598.20;106073;1271;22602;-47
2022/07/28 02:48:29;;;;;;;9.40;1.50;;;;;;;9.48;75.20;100603.31;106014;1271;24256;-48
2022/07/28 02:51:02;;;;;;;14.10;2.20;;;;;;;9.45;75.22;100606.64;106085;1268;22526;-48
2022/07/28 02:53:35;;;;;;;8.20;1.70;;;;;;;9.43;75.19;100607.65;106192;1271;22773;-50
2022/07/28 02:56:07;;;;;;;9.10;1.60;;;;;;;9.40;75.16;100606.84;106169;1271;24740;-48
2022/07/28 02:58:39;;;;;;;6.80;1.40;;;;;;;9.36;75.24;100614.07;106107;1271;25388;-52
2022/07/28 03:01:11;;;;;;;10.70;2.10;;;;;;;9.34;75.56;100616.17;106064;1271;22691;-46
2022/07/28 03:03:43;;;;;;;7.10;1.50;;;;;;;9.33;75.38;100616.30;106122;1271;22551;-48
2022/07/28 03:06:15;;;;;;;9.90;1.70;;;;;;;9.30;75.42;100620.64;106067;1271;24849;-48
2022/07/28 03:08:49;;;;;;;5.80;1.50;;;;;;;9.28;75.32;100621.12;106082;1271;22537;-49
2022/07/28 03:11:20;;;;;;;11.10;2.00;;;;;;;9.26;75.44;100627.44;106008;1271;22548;-50
2022/07/28 03:13:52;;;;;;;9.40;1.70;;;;;;;9.24;75.41;100631.42;106084;1271;25490;-48
2022/07/28 03:16:23;;;;;;;8.00;1.60;;;;;;;9.23;75.37;100633.52;106030;1271;22529;-47
2022/07/28 03:18:55;;;;;;;10.20;1.70;;;;;;;9.21;75.57;100640.33;106088;1271;25509;-48
2022/07/28 03:21:27;;;;;;;8.70;1.80;;;;;;;9.21;75.73;100638.34;106298;1271;25299;-48
2022/07/28 03:23:59;;;;;;;14.00;2.30;;;;;;;9.20;75.66;100640.85;106135;1271;22529;-48
2022/07/28 03:26:37;;;;;;;7.60;1.80;;;;;;;9.20;75.78;100639.60;106027;1271;25949;-47
2022/07/28 03:29:10;;;;;;;7.90;1.70;;;;;;;9.17;75.92;100642.89;106138;1271;23997;-52
2022/07/28 03:31:44;;;;;;;11.30;1.90;;;;;;;9.17;75.90;100640.13;106155;1271;22566;-48
2022/07/28 03:34:16;;;;;;;6.80;1.60;;;;;;;9.16;75.91;100644.46;105999;1271;22522;-48
2022/07/28 03:36:53;;;;;;;7.80;1.90;;;;;;;9.15;75.91;100648.88;106137;1271;26330;-48
2022/07/28 03:39:26;;;;;;;4.80;1.30;;;;;;;9.14;75.92;100653.21;106484;1271;22570;-50
2022/07/28 03:42:01;;;;;;;9.20;2.10;;;;;;;9.14;76.03;100659.58;106206;1271;22554;-50
2022/07/28 03:44:33;;;;;;;7.90;1.40;;;;;;;9.14;76.07;100661.02;106215;1271;22799;-50
2022/07/28 03:47:04;;;;;;;9.20;1.70;;;;;;;9.15;76.13;100661.54;106203;1270;22554;-48
2022/07/28 03:49:40;;;;;;;7.10;1.60;;;;;;;9.17;76.26;100663.77;106035;1271;24431;-49
2022/07/28 03:52:12;;;;;;;11.80;1.70;;;;;;;9.18;76.31;100665.45;106015;1271;22544;-49
2022/07/28 03:54:43;;;;;;;9.40;1.50;;;;;;;9.20;76.53;100666.91;106082;1271;23001;-49
2022/07/28 03:57:15;;;;;;;8.80;1.90;;;;;;;9.22;76.65;100669.98;106113;1268;22546;-49
2022/07/28 03:59:46;;;;;;;9.10;1.80;;;;;;;9.24;76.75;100672.30;106065;1269;22571;-49
2022/07/28 04:02:18;;;;;;;10.00;1.60;;;;;;;9.26;76.92;100672.04;105995;1270;25344;-51
2022/07/28 04:04:49;;;;;;;14.20;2.20;;;;;;;9.30;77.09;100672.95;106030;1270;22674;-47
2022/07/28 04:07:21;;;;;;;12.30;2.50;;;;;;;9.33;77.60;100678.63;106146;1271;24335;-49
2022/07/28 04:09:53;;;;;;;11.60;2.40;;;;;;;9.37;78.23;100677.89;106617;1261;25479;-60
2022/07/28 04:12:24;;;;;;;10.10;2.40;;;;;;;9.39;78.09;100675.20;106130;1270;22555;-60
2022/07/28 04:14:56;;;;;;;10.30;2.20;;;;;;;9.40;78.43;100679.27;106095;1271;22963;-60
2022/07/28 04:17:28;;;;;;;15.30;3.00;;;;;;;9.44;78.36;100675.52;105963;1271;25321;-60
2022/07/28 04:20:00;;;;;;;12.50;3.30;;;;;;;9.49;78.47;100677.71;106096;1270;22563;-61
2022/07/28 04:22:32;;;;;;;11.00;2.50;;;;;;;9.55;78.55;100678.49;106107;1271;24237;-61
2022/07/28 04:25:04;;;;;;;14.30;3.40;;;;;;;9.61;78.76;100672.08;106075;1271;22634;-60
2022/07/28 04:27:36;;;;;;;12.40;3.50;;;;;;;9.67;79.40;100674.80;106175;1271;24302;-59
2022/07/28 04:30:11;;;;;;;14.40;2.90;;;;;;;9.76;79.35;100673.88;106025;1271;22570;-61
2022/07/28 04:32:44;;;;;;;13.40;2.90;;;;;;;9.84;79.55;100674.91;105965;1271;24315;-59
2022/07/28 04:35:18;;;;;;;11.80;2.70;;;;;;;9.92;79.69;100675.57;106022;1271;24431;-63
2022/07/28 04:37:49;;;;;;;9.60;3.00;;;;;;;9.99;79.63;100671.20;105960;1271;24383;-61
2022/07/28 04:40:21;;;;;;;21.90;3.00;;;;;;;10.06;79.47;100671.84;106168;1271;22519;-61
2022/07/28 04:42:53;;;;;;;15.50;3.00;;;;;;;10.13;79.45;100668.84;106071;1271;22558;-60
2022/07/28 04:45:25;;;;;;;9.10;2.60;;;;;;;10.23;79.65;100673.15;106024;1271;22557;-62
2022/07/28 04:47:56;;;;;;;11.40;3.00;;;;;;;10.31;79.80;100672.27;106095;1269;22647;-61
2022/07/28 04:50:28;;;;;;;12.50;3.50;;;;;;;10.41;79.90;100669.34;106127;1271;24297;-60
2022/07/28 04:52:59;;;;;;;16.30;3.90;;;;;;;10.51;80.45;100667.42;106123;1271;23020;-61
2022/07/28 04:55:32;;;;;;;12.40;3.70;;;;;;;10.63;80.85;100670.59;106072;1271;24769;-59
2022/07/28 04:58:03;;;;;;;12.40;3.60;;;;;;;10.75;81.40;100670.85;106122;1271;22541;-60
2022/07/28 05:00:35;;;;;;;14.90;5.30;;;;;;;10.86;81.28;100664.70;106114;1271;22526;-61
2022/07/28 05:03:06;;;;;;;15.50;3.80;;;;;;;10.98;81.34;100663.76;106107;1271;25557;-63
2022/07/28 05:05:38;;;;;;;12.90;3.60;;;;;;;11.11;81.32;100661.11;106075;1271;22547;-62
2022/07/28 05:08:09;;;;;;;13.00;3.70;;;;;;;11.24;81.31;100660.88;106047;1271;22767;-63
2022/07/28 05:10:41;;;;;;;17.20;4.00;;;;;;;11.37;81.46;100661.89;105957;1271;24141;-61
2022/07/28 05:13:12;;;;;;;18.00;4.20;;;;;;;11.56;81.47;100660.72;106128;1270;24230;-61
2022/07/28 05:15:44;;;;;;;9.70;3.50;;;;;;;11.71;81.45;100665.89;106042;1271;22654;-63
2022/07/28 05:18:15;;;;;;;13.20;3.70;;;;;;;11.80;81.42;100664.38;106100;1271;22522;-61
2022/07/28 05:20:46;;;;;;;12.70;2.70;;;;;;;11.91;81.51;100666.88;106005;1271;25518;-64
2022/07/28 05:23:23;;;;;;;17.60;4.60;;;;;;;12.03;81.51;100667.48;106144;1271;24267;-61
2022/07/28 05:26:05;;;;;;;;;;;;;;;12.19;81.84;100666.83;105881;1271;22756;-63
2022/07/28 05:28:41;;;;;;;18.10;5.50;;;;;;;12.35;81.75;100669.42;106376;1271;22577;-61
2022/07/28 05:31:13;;;;;;;31.40;7.00;;;;;;;12.50;81.91;100677.67;106191;1271;22700;-63
2022/07/28 05:33:44;;;;;;;32.10;5.40;;;;;;;12.61;81.82;100681.30;107521;1271;22500;-59
2022/07/28 05:36:16;;;;;;;37.00;4.70;;;;;;;12.74;81.65;100677.77;106227;1270;22613;-61
2022/07/28 05:38:48;;;;;;;24.60;4.70;;;;;;;12.90;81.65;100679.39;106019;1271;25487;-59
2022/07/28 05:41:19;;;;;;;27.60;4.30;;;;;;;13.05;81.42;100682.41;106169;1271;23078;-61
2022/07/28 05:43:51;;;;;;;22.40;3.90;;;;;;;13.26;81.58;100682.34;106047;1271;26710;-62
2022/07/28 05:46:22;;;;;;;27.00;3.80;;;;;;;13.45;81.16;100683.89;106188;1271;22564;-61
2022/07/28 05:48:55;;;;;;;18.90;3.90;;;;;;;13.60;80.95;100681.77;106084;1271;22537;-59
2022/07/28 05:51:27;;;;;;;19.80;3.50;;;;;;;13.76;80.26;100691.67;106362;1271;24236;-60
2022/07/28 05:53:59;;;;;;;12.40;3.50;;;;;;;13.86;79.76;100688.78;106301;1271;22949;-62
2022/07/28 05:56:31;;;;;;;15.50;2.50;;;;;;;13.98;80.12;100690.78;106244;1271;25224;-60
2022/07/28 05:59:03;;;;;;;15.40;3.70;;;;;;;14.18;80.06;100690.14;105946;1271;22641;-61
2022/07/28 06:01:39;;;;;;;11.30;2.80;;;;;;;14.35;79.29;100695.11;106042;1271;22528;-62
2022/07/28 06:04:10;;;;;;;12.80;2.70;;;;;;;14.47;78.13;100697.81;106073;1270;22623;-62
2022/07/28 06:06:42;;;;;;;14.40;2.70;;;;;;;14.54;77.84;100692.61;106009;1271;22658;-62
2022/07/28 06:09:14;;;;;;;12.30;2.30;;;;;;;14.64;77.67;100693.42;106089;1270;24266;-62
2022/07/28 06:11:46;;;;;;;12.90;2.00;;;;;;;14.76;76.82;100692.31;106123;1271;22543;-63
2022/07/28 06:14:18;;;;;;;14.50;2.20;;;;;;;14.88;77.45;100696.88;106186;1271;23086;-62
2022/07/28 06:16:50;;;;;;;12.90;2.30;;;;;;;15.06;76.80;100700.14;106154;1271;24225;-62
2022/07/28 06:19:22;;;;;;;8.80;1.70;;;;;;;15.15;75.84;100701.49;106150;1271;22563;-62
2022/07/28 06:21:53;;;;;;;18.30;2.40;;;;;;;15.25;75.88;100699.47;106119;1271;22544;-62
2022/07/28 06:24:24;;;;;;;14.30;2.10;;;;;;;15.37;75.19;100698.73;106045;1271;22553;-62
2022/07/28 06:26:56;;;;;;;11.50;1.70;;;;;;;15.51;75.35;100694.66;106158;1271;24022;-62
2022/07/28 06:29:28;;;;;;;16.50;2.20;;;;;;;15.67;75.05;100694.35;106025;1271;22530;-63
2022/07/28 06:32:00;;;;;;;9.50;1.60;;;;;;;15.75;74.59;100697.11;106134;1271;22551;-60
2022/07/28 06:34:31;;;;;;;9.10;2.00;;;;;;;15.86;74.47;100695.58;106065;1272;24438;-62
2022/07/28 06:37:04;;;;;;;7.30;1.10;;;;;;;16.05;73.85;100699.23;106208;1271;23207;-63
2022/07/28 06:39:35;;;;;;;6.90;1.00;;;;;;;16.22;73.18;100700.02;106170;1271;22635;-62
2022/07/28 06:42:08;;;;;;;7.60;1.20;;;;;;;16.39;72.68;100702.33;106034;1271;25323;-63
2022/07/28 06:44:40;;;;;;;11.40;1.20;;;;;;;16.53;72.49;100700.29;106147;1271;23229;-63
2022/07/28 06:47:14;;;;;;;8.30;1.40;;;;;;;16.65;71.54;100702.72;106172;1271;25525;-63
2022/07/28 06:49:45;;;;;;;9.50;1.30;;;;;;;16.72;70.98;100700.52;106094;1269;25301;-62
2022/07/28 06:52:19;;;;;;;7.40;1.20;;;;;;;16.80;70.77;100699.51;106049;1271;22698;-63
2022/07/28 06:54:52;;;;;;;9.10;1.30;;;;;;;16.90;70.23;100699.11;106131;1270;24315;-63
2022/07/28 06:57:24;;;;;;;10.10;1.30;;;;;;;16.99;69.95;100701.63;106256;1269;22714;-62
2022/07/28 06:59:57;;;;;;;7.90;1.20;;;;;;;17.07;69.14;100701.48;105961;1271;25432;-63
2022/07/28 07:02:28;;;;;;;8.60;1.10;;;;;;;17.14;68.89;100699.83;106080;1271;23233;-62
2022/07/28 07:05:00;;;;;;;7.10;1.10;;;;;;;17.20;68.43;100701.36;106107;1271;23499;-62
2022/07/28 07:07:32;;;;;;;7.30;1.00;;;;;;;17.28;67.12;100704.84;106099;1271;22546;-62
2022/07/28 07:10:04;;;;;;;4.90;1.10;;;;;;;17.36;66.26;100705.30;106107;1270;25308;-62
2022/07/28 07:12:36;;;;;;;8.00;0.80;;;;;;;17.47;66.74;100701.80;106096;1271;22560;-62
2022/07/28 07:15:10;;;;;;;3.40;0.90;;;;;;;17.61;66.84;100706.63;106149;1271;24322;-62
2022/07/28 07:17:42;;;;;;;7.50;0.90;;;;;;;17.74;66.13;100708.34;106025;1271;22560;-63
2022/07/28 07:20:15;;;;;;;3.10;0.70;;;;;;;17.81;64.71;100706.61;106066;1271;22537;-62
2022/07/28 07:22:47;;;;;;;7.30;1.00;;;;;;;17.86;64.85;100707.33;106314;1270;26317;-62
2022/07/28 07:25:20;;;;;;;5.70;0.70;;;;;;;17.94;64.60;100710.80;106146;1269;23212;-64
2022/07/28 07:27:52;;;;;;;4.70;0.60;;;;;;;18.03;63.75;100710.40;106340;1271;25542;-62
2022/07/28 07:30:24;;;;;;;5.50;0.70;;;;;;;18.16;63.29;100708.95;105976;1271;22573;-63
2022/07/28 07:32:57;;;;;;;5.10;0.50;;;;;;;18.26;62.78;100706.70;106081;1271;24699;-63
2022/07/28 07:35:29;;;;;;;5.30;0.50;;;;;;;18.36;61.77;100708.08;106070;1271;24262;-62
2022/07/28 07:38:01;;;;;;;7.20;0.80;;;;;;;18.40;60.34;100710.22;106049;1271;23314;-62
2022/07/28 07:40:33;;;;;;;6.50;0.60;;;;;;;18.42;60.90;100707.66;105951;1271;24382;-63
2022/07/28 07:43:05;;;;;;;7.00;0.60;;;;;;;18.49;60.66;100706.91;105956;1271;25339;-62
2022/07/28 07:45:36;;;;;;;3.20;0.60;;;;;;;18.56;60.11;100707.23;106058;1271;22697;-63
2022/07/28 07:48:09;;;;;;;2.50;0.50;;;;;;;18.64;59.84;100703.27;106125;1271;22706;-63
2022/07/28 07:50:41;;;;;;;5.20;0.70;;;;;;;18.76;59.27;100709.20;106119;1271;22525;-63
2022/07/28 07:53:13;;;;;;;4.00;0.30;;;;;;;18.85;59.01;100709.10;106125;1271;24228;-63
2022/07/28 07:55:45;;;;;;;2.20;0.40;;;;;;;18.94;57.93;100712.16;106061;1271;22670;-63
2022/07/28 07:58:16;;;;;;;3.30;0.40;;;;;;;19.03;56.80;100711.90;106069;1271;25376;-63
2022/07/28 08:00:48;;;;;;;5.70;0.50;;;;;;;19.09;55.65;100714.21;105990;1271;24734;-63
2022/07/28 08:03:20;;;;;;;9.00;0.80;;;;;;;19.07;55.31;100709.54;106136;1271;25393;-63
2022/07/28 08:05:55;;;;;;;7.50;0.50;;;;;;;19.08;55.36;100710.77;106175;1271;23442;-64
2022/07/28 08:08:27;;;;;;;3.50;0.40;;;;;;;19.13;55.20;100707.38;105895;1271;25461;-63
2022/07/28 08:10:59;;;;;;;11.70;0.60;;;;;;;19.19;54.51;100701.61;106245;1270;24362;-62
2022/07/28 08:13:31;;;;;;;6.70;0.60;;;;;;;19.23;52.84;100703.17;106018;1271;22539;-64
2022/07/28 08:16:03;;;;;;;2.90;0.50;;;;;;;19.21;52.84;100701.85;105943;1271;22544;-63
2022/07/28 08:18:35;;;;;;;3.50;0.50;;;;;;;19.20;52.03;100699.40;106235;1271;22681;-63
2022/07/28 08:21:07;;;;;;;6.80;0.50;;;;;;;19.18;52.07;100699.77;106068;1271;22683;-65
2022/07/28 08:23:38;;;;;;;4.70;0.50;;;;;;;19.22;51.82;100698.77;106080;1271;25503;-64
2022/07/28 08:26:10;;;;;;;5.10;0.50;;;;;;;19.24;51.60;100701.22;105962;1271;22736;-62
2022/07/28 08:28:42;;;;;;;6.50;0.60;;;;;;;19.31;51.51;100701.66;106258;1270;22532;-63
2022/07/28 08:31:15;;;;;;;7.30;0.60;;;;;;;19.38;50.96;100697.58;106150;1271;22534;-63
2022/07/28 08:33:47;;;;;;;7.00;0.50;;;;;;;19.43;50.99;100700.08;106034;1271;24224;-63
2022/07/28 08:36:18;;;;;;;7.30;0.80;;;;;;;19.51;50.79;100700.94;106076;1271;22539;-64
2022/07/28 08:38:50;;;;;;;3.50;0.70;;;;;;;19.63;50.67;100695.77;106041;1271;22708;-63
2022/07/28 08:41:30;;;;;;;5.20;0.40;;;;;;;19.70;49.77;100697.02;105979;1271;22527;-63
2022/07/28 08:44:04;;;;;;;4.70;0.40;;;;;;;19.71;49.35;100700.41;105966;1271;25530;-64
2022/07/28 08:46:38;;;;;;;4.60;0.40;;;;;;;19.73;49.58;100692.10;105931;1271;24796;-63
2022/07/28 08:49:13;;;;;;;2.40;0.40;;;;;;;19.79;49.46;100695.69;106035;1270;22686;-65
2022/07/28 08:51:47;;;;;;;4.90;0.40;;;;;;;19.90;49.20;100692.48;106108;1270;22533;-63
2022/07/28 08:54:22;;;;;;;3.70;0.40;;;;;;;19.96;48.87;100688.64;106129;1271;22589;-64
2022/07/28 08:56:55;;;;;;;4.30;0.40;;;;;;;20.03;48.54;100686.70;106037;1270;23197;-63
2022/07/28 08:59:29;;;;;;;3.70;0.30;;;;;;;20.07;47.75;100684.73;106006;1271;22531;-63
2022/07/28 09:02:01;;;;;;;2.50;0.40;;;;;;;20.09;47.32;100686.67;106125;1270;22545;-64
2022/07/28 09:04:35;;;;;;;2.80;0.30;;;;;;;20.14;47.34;100681.77;106182;1271;22557;-64
2022/07/28 09:07:08;;;;;;;3.80;0.40;;;;;;;20.24;47.31;100684.81;106016;1271;22583;-65
2022/07/28 09:09:40;;;;;;;5.70;0.40;;;;;;;20.33;47.21;100684.48;106108;1271;25803;-63
2022/07/28 09:12:13;;;;;;;4.20;0.50;;;;;;;20.45;46.99;100681.58;106021;1271;22930;-63
2022/07/28 09:14:46;;;;;;;3.50;0.50;;;;;;;20.54;46.57;100679.08;106078;1270;25471;-64
2022/07/28 09:17:18;;;;;;;4.50;0.70;;;;;;;20.61;46.65;100678.04;106019;1270;22560;-64
2022/07/28 09:19:50;;;;;;;2.80;0.40;;;;;;;20.73;46.50;100678.83;106035;1271;22612;-63
2022/07/28 09:22:22;;;;;;;1.70;0.20;;;;;;;20.82;46.34;100677.72;105990;1270;22555;-64
2022/07/28 09:24:54;;;;;;;5.90;0.40;;;;;;;20.86;46.30;100676.51;106051;1271;22779;-64
2022/07/28 09:27:27;;;;;;;5.10;0.50;;;;;;;20.92;45.77;100672.40;106054;1271;24296;-63
2022/07/28 09:30:02;;;;;;;4.50;0.50;;;;;;;20.94;45.53;100670.55;106076;1271;22586;-64
2022/07/28 09:32:34;;;;;;;4.30;0.50;;;;;;;20.95;45.07;100669.34;106104;1270;22564;-64
2022/07/28 09:35:20;;;;;;;3.00;0.30;;;;;;;20.94;44.80;100670.34;105943;1271;26699;-63
2022/07/28 09:38:00;;;;;;;3.60;0.40;;;;;;;20.92;44.60;100667.21;105955;1271;22731;-67
2022/07/28 09:40:32;;;;;;;5.30;0.60;;;;;;;20.97;44.61;100666.78;106198;1270;24213;-65
2022/07/28 09:43:04;;;;;;;3.90;0.40;;;;;;;21.05;44.68;100670.61;106162;1270;23404;-64
2022/07/28 09:45:35;;;;;;;8.20;0.50;;;;;;;21.16;44.69;100668.45;106048;1271;24365;-65
2022/07/28 09:48:15;;;;;;;7.30;0.30;;;;;;;21.29;44.43;100667.34;106209;1271;22615;-64
2022/07/28 09:50:47;;;;;;;3.30;0.60;;;;;;;21.39;44.07;100661.37;106119;1271;23118;-64
2022/07/28 09:53:25;;;;;;;2.20;0.30;;;;;;;21.45;43.80;100662.52;106016;1271;25399;-65
2022/07/28 09:55:59;;;;;;;2.30;0.30;;;;;;;21.53;44.13;100660.03;106313;1271;25481;-64
2022/07/28 09:58:32;;;;;;;5.10;0.60;;;;;;;21.65;43.81;100654.77;106088;1270;22549;-64
2022/07/28 10:01:08;;;;;;;1.40;0.20;;;;;;;21.78;43.50;100658.92;106134;1271;25423;-64
2022/07/28 10:03:42;;;;;;;2.30;0.60;;;;;;;21.85;43.12;100658.55;106158;1271;27328;-65
2022/07/28 10:06:25;;;;;;;3.60;0.50;;;;;;;21.87;42.63;100656.04;106004;1270;22735;-64
2022/07/28 10:09:00;;;;;;;4.60;0.50;;;;;;;21.87;42.46;100652.31;106089;1269;25525;-64
2022/07/28 10:11:33;;;;;;;2.80;0.40;;;;;;;21.89;42.56;100648.82;106542;1261;24373;-50
2022/07/28 10:14:07;;;;;;;3.50;0.50;;;;;;;21.93;42.47;100644.89;106111;1270;22551;-51
2022/07/28 10:16:45;;;;;;;5.00;0.40;;;;;;;21.96;42.07;100643.23;106008;1271;22550;-48
2022/07/28 10:19:19;;;;;;;4.90;0.70;;;;;;;21.96;42.13;100649.08;106016;1270;22611;-49
2022/07/28 10:21:56;;;;;;;4.50;0.40;;;;;;;21.98;42.20;100647.31;105904;1271;25577;-50
2022/07/28 10:24:31;;;;;;;3.40;0.40;;;;;;;22.03;41.98;100648.70;106054;1271;25308;-52
2022/07/28 10:27:05;;;;;;;6.40;0.50;;;;;;;22.09;41.77;100643.36;106107;1271;25252;-52
2022/07/28 10:29:38;;;;;;;7.50;0.40;;;;;;;22.10;41.58;100645.21;106167;1270;22612;-49
2022/07/28 10:32:10;;;;;;;6.00;0.50;;;;;;;22.13;41.55;100640.42;105968;1271;24345;-51
2022/07/28 10:34:48;;;;;;;5.50;0.40;;;;;;;22.17;41.26;100639.32;106210;1271;24254;-50
2022/07/28 10:37:23;;;;;;;4.30;0.50;;;;;;;22.16;40.67;100642.98;106049;1271;25254;-49
2022/07/28 10:40:02;;;;;;;2.90;0.60;;;;;;;22.12;40.80;100640.83;106031;1270;26559;-53
2022/07/28 10:42:35;;;;;;;3.60;0.40;;;;;;;22.14;40.72;100640.88;106026;1271;24224;-54
2022/07/28 10:45:08;;;;;;;3.90;0.40;;;;;;;22.15;40.88;100635.44;105997;1271;22685;-53
2022/07/28 10:47:41;;;;;;;7.80;0.40;;;;;;;22.21;40.86;100636.98;106031;1271;24264;-49
2022/07/28 10:50:13;;;;;;;6.40;0.50;;;;;;;22.23;40.40;100633.02;106030;1271;25229;-50
2022/07/28 10:52:46;;;;;;;5.60;0.50;;;;;;;22.23;40.45;100634.69;106071;1271;22551;-52
2022/07/28 10:55:23;;;;;;;5.10;0.70;;;;;;;22.26;40.29;100633.63;106067;1271;22846;-54
2022/07/28 10:58:04;;;;;;;7.10;0.60;;;;;;;22.30;40.42;100631.25;105990;1271;22573;-51
2022/07/28 11:00:43;;;;;;;6.00;0.40;;;;;;;22.36;40.17;100628.48;106038;1271;22679;-51
2022/07/28 11:03:39;;;;;;;10.50;0.50;;;;;;;22.44;40.29;100623.71;106046;1271;22579;-51
2022/07/28 11:06:32;;;;;;;2.70;0.30;;;;;;;22.54;40.34;100626.05;105889;1271;22620;-51
2022/07/28 11:09:24;;;;;;;2.40;0.40;;;;;;;22.63;39.91;100630.88;105998;1271;22544;-53
2022/07/28 11:11:57;;;;;;;3.30;0.40;;;;;;;22.66;39.81;100632.77;105849;1270;25454;-53
2022/07/28 11:14:37;;;;;;;2.80;0.20;;;;;;;22.71;39.89;100629.96;106034;1271;25467;-50
2022/07/28 11:17:25;;;;;;;5.10;0.40;;;;;;;22.78;39.85;100631.48;105786;1271;22547;-50
2022/07/28 11:19:59;;;;;;;5.30;0.40;;;;;;;22.86;39.88;100631.09;105789;1271;22685;-53
2022/07/28 11:22:32;;;;;;;4.20;0.30;;;;;;;22.92;39.75;100627.31;105940;1271;22550;-50
2022/07/28 11:25:19;;;;;;;2.40;0.40;;;;;;;22.97;39.09;100627.89;105907;1270;24989;-50
2022/07/28 11:28:04;;;;;;;2.40;0.40;;;;;;;23.00;39.51;100628.20;106182;1271;22528;-50
2022/07/28 11:30:56;;;;;;;5.10;0.40;;;;;;;23.06;39.29;100621.20;105848;1271;24368;-53
2022/07/28 11:33:57;;;;;;;5.20;0.30;;;;;;;23.16;39.57;100620.31;105995;1270;24418;-52
2022/07/28 11:37:06;;;;;;;3.20;0.40;;;;;;;23.25;39.39;100625.51;105994;1270;23446;-49
2022/07/28 11:39:39;;;;;;;4.70;0.50;;;;;;;23.26;38.69;100622.77;105867;1271;22534;-49
2022/07/28 11:42:27;;;;;;;10.20;0.60;;;;;;;23.19;38.50;100621.99;105923;1270;22643;-53
2022/07/28 11:45:25;;;;;;;9.70;0.50;;;;;;;23.10;38.27;100616.95;105879;1271;24884;-53
2022/07/28 11:48:15;;;;;;;2.80;0.30;;;;;;;22.99;37.93;100611.86;106040;1270;22618;-53